sensor_id;sensor_type;location;lat;lon;timestamp;pressure;altitude;pressure_sealevel;temperature;humidity
26531;BME280;14201;43.188;24.160;2024-02-28T00:00:37;100043.06;;;5.29;84.88
26531;BME280;14201;43.188;24.160;2024-02-28T00:03:03;100056.84;;;5.41;83.42
26531;BME280;14201;43.188;24.160;2024-02-28T00:05:28;100042.66;;;5.48;83.54
26531;BME280;14201;43.188;24.160;2024-02-28T00:07:53;100051.75;;;5.55;84.03
26531;BME280;14201;43.188;24.160;2024-02-28T00:10:19;100049.94;;;5.53;84.71
26531;BME280;14201;43.188;24.160;2024-02-28T00:12:45;100049.25;;;5.56;85.31
26531;BME280;14201;43.188;24.160;2024-02-28T00:15:14;100053.06;;;5.61;85.30
26531;BME280;14201;43.188;24.160;2024-02-28T00:17:39;100054.06;;;5.63;86.03
26531;BME280;14201;43.188;24.160;2024-02-28T00:20:08;100063.91;;;5.44;85.70
26531;BME280;14201;43.188;24.160;2024-02-28T00:22:37;100065.38;;;5.40;82.94
26531;BME280;14201;43.188;24.160;2024-02-28T00:25:03;100061.22;;;5.42;83.48
26531;BME280;14201;43.188;24.160;2024-02-28T00:27:28;100059.44;;;5.41;84.85
26531;BME280;14201;43.188;24.160;2024-02-28T00:29:54;100062.88;;;5.53;86.17
26531;BME280;14201;43.188;24.160;2024-02-28T00:32:19;100062.50;;;5.61;85.94
26531;BME280;14201;43.188;24.160;2024-02-28T00:34:44;100058.16;;;5.23;84.07
26531;BME280;14201;43.188;24.160;2024-02-28T00:37:10;100060.19;;;5.15;83.11
26531;BME280;14201;43.188;24.160;2024-02-28T00:39:35;100067.81;;;5.13;82.90
26531;BME280;14201;43.188;24.160;2024-02-28T00:42:01;100078.84;;;5.11;83.06
26531;BME280;14201;43.188;24.160;2024-02-28T00:44:26;100068.63;;;5.12;84.17
26531;BME280;14201;43.188;24.160;2024-02-28T00:46:52;100069.63;;;5.15;85.11
26531;BME280;14201;43.188;24.160;2024-02-28T00:49:17;100070.47;;;4.90;84.82
26531;BME280;14201;43.188;24.160;2024-02-28T00:51:42;100079.31;;;4.93;84.71
26531;BME280;14201;43.188;24.160;2024-02-28T00:54:08;100073.94;;;5.02;84.76
26531;BME280;14201;43.188;24.160;2024-02-28T00:56:33;100075.28;;;4.97;84.19
26531;BME280;14201;43.188;24.160;2024-02-28T00:58:59;100083.13;;;4.99;84.71
26531;BME280;14201;43.188;24.160;2024-02-28T01:01:25;100087.63;;;5.01;85.29
26531;BME280;14201;43.188;24.160;2024-02-28T01:03:50;100088.09;;;4.84;84.07
26531;BME280;14201;43.188;24.160;2024-02-28T01:06:16;100090.00;;;4.74;83.27
26531;BME280;14201;43.188;24.160;2024-02-28T01:08:42;100091.56;;;4.72;83.57
26531;BME280;14201;43.188;24.160;2024-02-28T01:11:07;100093.03;;;4.69;84.19
26531;BME280;14201;43.188;24.160;2024-02-28T01:13:32;100092.81;;;4.78;84.02
26531;BME280;14201;43.188;24.160;2024-02-28T01:15:58;100099.28;;;4.84;84.48
26531;BME280;14201;43.188;24.160;2024-02-28T01:18:25;100104.25;;;4.81;84.78
26531;BME280;14201;43.188;24.160;2024-02-28T01:20:50;100103.00;;;4.76;84.88
26531;BME280;14201;43.188;24.160;2024-02-28T01:23:17;100095.16;;;4.74;84.53
26531;BME280;14201;43.188;24.160;2024-02-28T01:25:43;100094.72;;;4.68;84.81
26531;BME280;14201;43.188;24.160;2024-02-28T01:28:08;100098.53;;;4.62;85.61
26531;BME280;14201;43.188;24.160;2024-02-28T01:30:33;100103.72;;;4.62;86.08
26531;BME280;14201;43.188;24.160;2024-02-28T01:32:59;100102.56;;;4.70;86.51
26531;BME280;14201;43.188;24.160;2024-02-28T01:35:24;100104.03;;;4.66;87.56
26531;BME280;14201;43.188;24.160;2024-02-28T01:37:50;100116.81;;;4.65;87.78
26531;BME280;14201;43.188;24.160;2024-02-28T01:40:15;100106.94;;;4.71;88.15
26531;BME280;14201;43.188;24.160;2024-02-28T01:42:41;100104.47;;;4.72;88.72
26531;BME280;14201;43.188;24.160;2024-02-28T01:45:06;100112.44;;;4.76;89.32
26531;BME280;14201;43.188;24.160;2024-02-28T01:47:34;100122.09;;;4.66;85.68
26531;BME280;14201;43.188;24.160;2024-02-28T01:49:59;100129.38;;;4.60;84.46
26531;BME280;14201;43.188;24.160;2024-02-28T01:52:25;100130.72;;;4.55;84.88
26531;BME280;14201;43.188;24.160;2024-02-28T01:54:51;100134.22;;;4.56;86.58
26531;BME280;14201;43.188;24.160;2024-02-28T01:57:16;100135.19;;;4.46;87.94
26531;BME280;14201;43.188;24.160;2024-02-28T01:59:41;100131.84;;;4.47;89.27
26531;BME280;14201;43.188;24.160;2024-02-28T02:02:07;100128.94;;;4.54;89.75
26531;BME280;14201;43.188;24.160;2024-02-28T02:04:33;100130.50;;;4.64;90.56
26531;BME280;14201;43.188;24.160;2024-02-28T02:06:59;100128.25;;;4.68;89.88
26531;BME280;14201;43.188;24.160;2024-02-28T02:09:25;100127.13;;;4.53;89.92
26531;BME280;14201;43.188;24.160;2024-02-28T02:11:50;100129.06;;;4.56;89.94
26531;BME280;14201;43.188;24.160;2024-02-28T02:14:16;100134.75;;;4.51;90.03
26531;BME280;14201;43.188;24.160;2024-02-28T02:16:41;100136.78;;;4.56;89.69
26531;BME280;14201;43.188;24.160;2024-02-28T02:19:08;100136.22;;;4.60;89.09
26531;BME280;14201;43.188;24.160;2024-02-28T02:22:07;100143.84;;;4.46;89.01
26531;BME280;14201;43.188;24.160;2024-02-28T02:24:25;100139.31;;;4.44;90.28
26531;BME280;14201;43.188;24.160;2024-02-28T02:26:54;100135.41;;;4.37;91.76
26531;BME280;14201;43.188;24.160;2024-02-28T02:29:20;100136.75;;;4.32;91.48
26531;BME280;14201;43.188;24.160;2024-02-28T02:31:45;100149.13;;;4.48;91.89
26531;BME280;14201;43.188;24.160;2024-02-28T02:34:10;100144.41;;;4.66;90.50
26531;BME280;14201;43.188;24.160;2024-02-28T02:36:36;100149.47;;;4.64;90.57
26531;BME280;14201;43.188;24.160;2024-02-28T02:39:01;100150.91;;;4.61;90.76
26531;BME280;14201;43.188;24.160;2024-02-28T02:41:27;100150.69;;;4.58;91.39
26531;BME280;14201;43.188;24.160;2024-02-28T02:43:53;100152.47;;;4.59;91.44
26531;BME280;14201;43.188;24.160;2024-02-28T02:46:18;100145.41;;;4.56;91.63
26531;BME280;14201;43.188;24.160;2024-02-28T02:48:44;100154.94;;;4.57;91.61
26531;BME280;14201;43.188;24.160;2024-02-28T02:51:09;100147.66;;;4.63;91.53
26531;BME280;14201;43.188;24.160;2024-02-28T02:53:34;100151.59;;;4.58;92.19
26531;BME280;14201;43.188;24.160;2024-02-28T02:56:00;100153.56;;;4.27;92.99
26531;BME280;14201;43.188;24.160;2024-02-28T02:58:28;100151.28;;;4.20;93.87
26531;BME280;14201;43.188;24.160;2024-02-28T03:00:53;100161.19;;;4.25;94.13
26531;BME280;14201;43.188;24.160;2024-02-28T03:03:19;100155.38;;;4.40;94.22
26531;BME280;14201;43.188;24.160;2024-02-28T03:05:44;100152.78;;;4.40;93.98
26531;BME280;14201;43.188;24.160;2024-02-28T03:08:10;100145.38;;;4.32;94.21
26531;BME280;14201;43.188;24.160;2024-02-28T03:10:35;100150.66;;;4.46;94.65
26531;BME280;14201;43.188;24.160;2024-02-28T03:13:00;100152.44;;;4.35;94.83
26531;BME280;14201;43.188;24.160;2024-02-28T03:15:27;100154.03;;;4.45;95.14
26531;BME280;14201;43.188;24.160;2024-02-28T03:17:52;100160.78;;;4.54;93.93
26531;BME280;14201;43.188;24.160;2024-02-28T03:20:17;100164.25;;;4.55;93.97
26531;BME280;14201;43.188;24.160;2024-02-28T03:22:43;100165.50;;;4.60;93.58
26531;BME280;14201;43.188;24.160;2024-02-28T03:25:08;100163.03;;;4.50;93.07
26531;BME280;14201;43.188;24.160;2024-02-28T03:27:34;100170.53;;;4.47;92.50
26531;BME280;14201;43.188;24.160;2024-02-28T03:29:59;100169.25;;;4.42;93.13
26531;BME280;14201;43.188;24.160;2024-02-28T03:32:25;100173.97;;;4.36;94.35
26531;BME280;14201;43.188;24.160;2024-02-28T03:34:50;100165.03;;;4.42;94.92
26531;BME280;14201;43.188;24.160;2024-02-28T03:37:16;100171.97;;;3.98;97.17
26531;BME280;14201;43.188;24.160;2024-02-28T03:39:41;100169.44;;;3.87;98.54
26531;BME280;14201;43.188;24.160;2024-02-28T03:42:08;100175.69;;;3.79;99.25
26531;BME280;14201;43.188;24.160;2024-02-28T03:44:34;100172.22;;;3.79;99.43
26531;BME280;14201;43.188;24.160;2024-02-28T03:46:59;100174.34;;;4.06;98.11
26531;BME280;14201;43.188;24.160;2024-02-28T03:49:25;100179.91;;;4.01;97.05
26531;BME280;14201;43.188;24.160;2024-02-28T03:51:50;100177.28;;;3.89;96.94
26531;BME280;14201;43.188;24.160;2024-02-28T03:54:15;100174.00;;;3.80;97.08
26531;BME280;14201;43.188;24.160;2024-02-28T03:56:41;100170.25;;;3.86;97.10
26531;BME280;14201;43.188;24.160;2024-02-28T03:59:06;100174.63;;;3.99;96.89
26531;BME280;14201;43.188;24.160;2024-02-28T04:01:32;100170.06;;;4.07;96.80
26531;BME280;14201;43.188;24.160;2024-02-28T04:03:57;100174.91;;;4.14;96.59
26531;BME280;14201;43.188;24.160;2024-02-28T04:06:23;100170.09;;;4.19;97.23
26531;BME280;14201;43.188;24.160;2024-02-28T04:08:48;100176.09;;;4.29;95.97
26531;BME280;14201;43.188;24.160;2024-02-28T04:11:14;100163.91;;;4.39;95.33
26531;BME280;14201;43.188;24.160;2024-02-28T04:13:40;100172.22;;;4.46;94.97
26531;BME280;14201;43.188;24.160;2024-02-28T04:16:06;100172.22;;;4.46;95.51
26531;BME280;14201;43.188;24.160;2024-02-28T04:18:31;100163.91;;;4.50;96.86
26531;BME280;14201;43.188;24.160;2024-02-28T04:20:58;100168.63;;;4.56;97.29
26531;BME280;14201;43.188;24.160;2024-02-28T04:23:24;100172.22;;;4.58;97.47
26531;BME280;14201;43.188;24.160;2024-02-28T04:25:49;100177.59;;;4.61;97.70
26531;BME280;14201;43.188;24.160;2024-02-28T04:28:15;100170.41;;;4.57;97.12
26531;BME280;14201;43.188;24.160;2024-02-28T04:30:40;100171.09;;;4.66;96.46
26531;BME280;14201;43.188;24.160;2024-02-28T04:33:05;100168.75;;;4.69;96.68
26531;BME280;14201;43.188;24.160;2024-02-28T04:35:31;100166.50;;;4.74;97.31
26531;BME280;14201;43.188;24.160;2024-02-28T04:37:56;100167.75;;;4.67;98.04
26531;BME280;14201;43.188;24.160;2024-02-28T04:40:22;100160.34;;;4.72;98.44
26531;BME280;14201;43.188;24.160;2024-02-28T04:42:47;100167.31;;;4.73;99.24
26531;BME280;14201;43.188;24.160;2024-02-28T04:45:12;100176.94;;;4.76;99.61
26531;BME280;14201;43.188;24.160;2024-02-28T04:47:38;100171.22;;;4.80;99.51
26531;BME280;14201;43.188;24.160;2024-02-28T04:50:04;100173.94;;;4.93;98.58
26531;BME280;14201;43.188;24.160;2024-02-28T04:52:32;100172.25;;;4.93;97.82
26531;BME280;14201;43.188;24.160;2024-02-28T04:54:58;100172.91;;;4.91;98.91
26531;BME280;14201;43.188;24.160;2024-02-28T04:57:23;100176.06;;;4.99;98.94
26531;BME280;14201;43.188;24.160;2024-02-28T04:59:49;100172.69;;;4.88;99.13
26531;BME280;14201;43.188;24.160;2024-02-28T05:02:14;100170.53;;;4.82;99.88
26531;BME280;14201;43.188;24.160;2024-02-28T05:04:40;100180.75;;;4.81;100.00
26531;BME280;14201;43.188;24.160;2024-02-28T05:07:05;100185.00;;;4.68;100.00
26531;BME280;14201;43.188;24.160;2024-02-28T05:09:32;100190.16;;;4.68;100.00
26531;BME280;14201;43.188;24.160;2024-02-28T05:11:58;100197.16;;;4.69;100.00
26531;BME280;14201;43.188;24.160;2024-02-28T05:14:24;100199.16;;;4.62;100.00
26531;BME280;14201;43.188;24.160;2024-02-28T05:16:49;100205.50;;;4.55;100.00
26531;BME280;14201;43.188;24.160;2024-02-28T05:19:15;100197.78;;;4.67;100.00
26531;BME280;14201;43.188;24.160;2024-02-28T05:21:43;100206.22;;;4.76;100.00
26531;BME280;14201;43.188;24.160;2024-02-28T05:24:09;100207.59;;;4.95;100.00
26531;BME280;14201;43.188;24.160;2024-02-28T05:26:35;100209.94;;;4.91;100.00
26531;BME280;14201;43.188;24.160;2024-02-28T05:29:01;100212.84;;;4.96;100.00
26531;BME280;14201;43.188;24.160;2024-02-28T05:31:26;100211.50;;;5.01;100.00
26531;BME280;14201;43.188;24.160;2024-02-28T05:33:52;100210.38;;;5.09;100.00
26531;BME280;14201;43.188;24.160;2024-02-28T05:36:19;100216.69;;;5.13;100.00
26531;BME280;14201;43.188;24.160;2024-02-28T05:38:44;100222.53;;;5.10;100.00
26531;BME280;14201;43.188;24.160;2024-02-28T05:41:10;100222.06;;;5.16;100.00
26531;BME280;14201;43.188;24.160;2024-02-28T05:43:39;100219.38;;;5.15;100.00
26531;BME280;14201;43.188;24.160;2024-02-28T05:46:04;100218.03;;;5.20;100.00
26531;BME280;14201;43.188;24.160;2024-02-28T05:48:29;100220.63;;;5.20;100.00
26531;BME280;14201;43.188;24.160;2024-02-28T05:50:55;100225.44;;;5.27;100.00
26531;BME280;14201;43.188;24.160;2024-02-28T05:53:20;100227.66;;;5.34;100.00
26531;BME280;14201;43.188;24.160;2024-02-28T05:55:46;100231.69;;;5.42;100.00
26531;BME280;14201;43.188;24.160;2024-02-28T05:58:11;100242.03;;;5.30;100.00
26531;BME280;14201;43.188;24.160;2024-02-28T06:00:38;100239.25;;;5.39;100.00
26531;BME280;14201;43.188;24.160;2024-02-28T06:03:03;100244.28;;;5.49;100.00
26531;BME280;14201;43.188;24.160;2024-02-28T06:05:29;100240.00;;;5.50;100.00
26531;BME280;14201;43.188;24.160;2024-02-28T06:07:55;100243.81;;;5.55;100.00
26531;BME280;14201;43.188;24.160;2024-02-28T06:10:20;100256.28;;;5.61;100.00
26531;BME280;14201;43.188;24.160;2024-02-28T06:12:46;100255.16;;;5.69;100.00
26531;BME280;14201;43.188;24.160;2024-02-28T06:15:12;100259.75;;;5.73;100.00
26531;BME280;14201;43.188;24.160;2024-02-28T06:17:37;100258.16;;;5.75;100.00
26531;BME280;14201;43.188;24.160;2024-02-28T06:20:03;100262.19;;;5.83;100.00
26531;BME280;14201;43.188;24.160;2024-02-28T06:22:28;100257.25;;;5.86;100.00
26531;BME280;14201;43.188;24.160;2024-02-28T06:24:53;100261.25;;;5.95;100.00
26531;BME280;14201;43.188;24.160;2024-02-28T06:27:19;100257.25;;;5.98;100.00
26531;BME280;14201;43.188;24.160;2024-02-28T06:29:44;100261.25;;;5.95;100.00
26531;BME280;14201;43.188;24.160;2024-02-28T06:32:10;100267.13;;;5.92;100.00
26531;BME280;14201;43.188;24.160;2024-02-28T06:34:35;100259.72;;;5.97;100.00
26531;BME280;14201;43.188;24.160;2024-02-28T06:37:00;100263.66;;;6.03;100.00
26531;BME280;14201;43.188;24.160;2024-02-28T06:39:26;100265.19;;;6.13;100.00
26531;BME280;14201;43.188;24.160;2024-02-28T06:41:51;100268.03;;;6.29;100.00
26531;BME280;14201;43.188;24.160;2024-02-28T06:44:20;100272.69;;;6.47;100.00
26531;BME280;14201;43.188;24.160;2024-02-28T06:46:45;100279.78;;;6.49;100.00
26531;BME280;14201;43.188;24.160;2024-02-28T06:49:11;100264.84;;;6.59;100.00
26531;BME280;14201;43.188;24.160;2024-02-28T06:51:36;100278.38;;;6.55;100.00
26531;BME280;14201;43.188;24.160;2024-02-28T06:54:03;100285.69;;;6.35;100.00
26531;BME280;14201;43.188;24.160;2024-02-28T06:56:28;100292.28;;;6.43;100.00
26531;BME280;14201;43.188;24.160;2024-02-28T06:58:54;100288.97;;;6.33;100.00
26531;BME280;14201;43.188;24.160;2024-02-28T07:01:19;100292.31;;;6.57;100.00
26531;BME280;14201;43.188;24.160;2024-02-28T07:03:45;100283.03;;;6.72;100.00
26531;BME280;14201;43.188;24.160;2024-02-28T07:06:11;100291.31;;;6.80;100.00
26531;BME280;14201;43.188;24.160;2024-02-28T07:08:36;100283.25;;;6.75;100.00
26531;BME280;14201;43.188;24.160;2024-02-28T07:11:02;100285.03;;;6.76;100.00
26531;BME280;14201;43.188;24.160;2024-02-28T07:13:28;100283.97;;;6.99;100.00
26531;BME280;14201;43.188;24.160;2024-02-28T07:15:53;100284.72;;;7.10;100.00
26531;BME280;14201;43.188;24.160;2024-02-28T07:18:23;100280.63;;;7.14;100.00
26531;BME280;14201;43.188;24.160;2024-02-28T07:20:50;100280.66;;;7.27;100.00
26531;BME280;14201;43.188;24.160;2024-02-28T07:23:17;100278.25;;;7.43;100.00
26531;BME280;14201;43.188;24.160;2024-02-28T07:25:42;100279.47;;;7.48;100.00
26531;BME280;14201;43.188;24.160;2024-02-28T07:28:08;100270.38;;;7.55;100.00
26531;BME280;14201;43.188;24.160;2024-02-28T07:30:33;100277.03;;;7.52;100.00
26531;BME280;14201;43.188;24.160;2024-02-28T07:32:58;100271.34;;;7.57;100.00
26531;BME280;14201;43.188;24.160;2024-02-28T07:35:24;100274.56;;;7.53;100.00
26531;BME280;14201;43.188;24.160;2024-02-28T07:37:49;100266.69;;;7.52;100.00
26531;BME280;14201;43.188;24.160;2024-02-28T07:40:15;100274.94;;;7.59;100.00
26531;BME280;14201;43.188;24.160;2024-02-28T07:42:40;100279.91;;;7.83;100.00
26531;BME280;14201;43.188;24.160;2024-02-28T07:45:06;100276.63;;;7.72;100.00
26531;BME280;14201;43.188;24.160;2024-02-28T07:47:33;100276.94;;;7.63;100.00
26531;BME280;14201;43.188;24.160;2024-02-28T07:49:59;100279.34;;;7.47;100.00
26531;BME280;14201;43.188;24.160;2024-02-28T07:52:24;100273.84;;;7.56;100.00
26531;BME280;14201;43.188;24.160;2024-02-28T07:54:50;100267.16;;;7.59;100.00
26531;BME280;14201;43.188;24.160;2024-02-28T07:57:15;100268.88;;;7.45;100.00
26531;BME280;14201;43.188;24.160;2024-02-28T07:59:41;100266.19;;;7.57;100.00
26531;BME280;14201;43.188;24.160;2024-02-28T08:02:07;100265.06;;;7.67;100.00
26531;BME280;14201;43.188;24.160;2024-02-28T08:04:32;100269.13;;;7.77;100.00
26531;BME280;14201;43.188;24.160;2024-02-28T08:06:59;100254.44;;;7.91;100.00
26531;BME280;14201;43.188;24.160;2024-02-28T08:09:24;100261.31;;;8.03;100.00
26531;BME280;14201;43.188;24.160;2024-02-28T08:11:50;100258.19;;;8.09;100.00
26531;BME280;14201;43.188;24.160;2024-02-28T08:14:15;100260.56;;;7.78;100.00
26531;BME280;14201;43.188;24.160;2024-02-28T08:16:41;100253.09;;;7.56;100.00
26531;BME280;14201;43.188;24.160;2024-02-28T08:19:06;100262.22;;;7.91;100.00
26531;BME280;14201;43.188;24.160;2024-02-28T08:21:32;100261.78;;;8.11;100.00
26531;BME280;14201;43.188;24.160;2024-02-28T08:23:57;100259.41;;;8.29;100.00
26531;BME280;14201;43.188;24.160;2024-02-28T08:26:23;100271.31;;;8.25;100.00
26531;BME280;14201;43.188;24.160;2024-02-28T08:28:49;100270.06;;;8.47;100.00
26531;BME280;14201;43.188;24.160;2024-02-28T08:31:15;100268.22;;;8.59;100.00
26531;BME280;14201;43.188;24.160;2024-02-28T08:33:41;100269.78;;;8.71;100.00
26531;BME280;14201;43.188;24.160;2024-02-28T08:36:06;100272.09;;;8.81;100.00
26531;BME280;14201;43.188;24.160;2024-02-28T08:38:32;100270.69;;;8.86;100.00
26531;BME280;14201;43.188;24.160;2024-02-28T08:40:57;100274.78;;;8.97;100.00
26531;BME280;14201;43.188;24.160;2024-02-28T08:43:23;100269.34;;;9.07;100.00
26531;BME280;14201;43.188;24.160;2024-02-28T08:45:48;100267.44;;;9.20;100.00
26531;BME280;14201;43.188;24.160;2024-02-28T08:48:17;100271.28;;;9.26;100.00
26531;BME280;14201;43.188;24.160;2024-02-28T08:50:42;100254.69;;;9.24;100.00
26531;BME280;14201;43.188;24.160;2024-02-28T08:53:08;100270.28;;;9.39;99.19
26531;BME280;14201;43.188;24.160;2024-02-28T08:55:37;100270.91;;;9.50;99.03
26531;BME280;14201;43.188;24.160;2024-02-28T08:58:02;100263.88;;;9.64;95.94
26531;BME280;14201;43.188;24.160;2024-02-28T09:00:28;100260.97;;;9.74;93.97
26531;BME280;14201;43.188;24.160;2024-02-28T09:02:54;100266.38;;;9.62;93.78
26531;BME280;14201;43.188;24.160;2024-02-28T09:05:19;100271.91;;;9.52;94.42
26531;BME280;14201;43.188;24.160;2024-02-28T09:07:45;100267.47;;;9.66;94.69
26531;BME280;14201;43.188;24.160;2024-02-28T09:10:16;100270.22;;;9.69;94.08
26531;BME280;14201;43.188;24.160;2024-02-28T09:12:46;100268.56;;;9.55;95.39
26531;BME280;14201;43.188;24.160;2024-02-28T09:15:12;100264.53;;;9.60;94.45
26531;BME280;14201;43.188;24.160;2024-02-28T09:17:38;100260.72;;;9.70;94.45
26531;BME280;14201;43.188;24.160;2024-02-28T09:20:04;100262.22;;;9.81;94.12
26531;BME280;14201;43.188;24.160;2024-02-28T09:22:32;100265.97;;;9.55;94.25
26531;BME280;14201;43.188;24.160;2024-02-28T09:24:57;100261.75;;;9.57;95.96
26531;BME280;14201;43.188;24.160;2024-02-28T09:27:23;100248.28;;;9.64;98.07
26531;BME280;14201;43.188;24.160;2024-02-28T09:29:50;100265.22;;;9.89;98.87
26531;BME280;14201;43.188;24.160;2024-02-28T09:32:15;100267.72;;;10.18;93.61
26531;BME280;14201;43.188;24.160;2024-02-28T09:34:41;100275.84;;;10.24;92.93
26531;BME280;14201;43.188;24.160;2024-02-28T09:37:07;100263.28;;;10.32;93.22
26531;BME280;14201;43.188;24.160;2024-02-28T09:39:32;100263.63;;;10.55;90.41
26531;BME280;14201;43.188;24.160;2024-02-28T09:41:58;100273.53;;;10.62;87.70
26531;BME280;14201;43.188;24.160;2024-02-28T09:44:23;100266.25;;;10.23;89.28
26531;BME280;14201;43.188;24.160;2024-02-28T09:46:51;100275.13;;;10.27;90.79
26531;BME280;14201;43.188;24.160;2024-02-28T09:49:18;100271.28;;;10.35;92.30
26531;BME280;14201;43.188;24.160;2024-02-28T09:51:48;100262.53;;;10.35;89.85
26531;BME280;14201;43.188;24.160;2024-02-28T09:54:15;100259.28;;;10.39;89.79
26531;BME280;14201;43.188;24.160;2024-02-28T09:56:41;100256.50;;;10.52;91.84
26531;BME280;14201;43.188;24.160;2024-02-28T09:59:07;100246.81;;;10.66;89.46
26531;BME280;14201;43.188;24.160;2024-02-28T10:01:40;100253.28;;;10.40;89.57
26531;BME280;14201;43.188;24.160;2024-02-28T10:04:07;100252.78;;;10.47;91.04
26531;BME280;14201;43.188;24.160;2024-02-28T10:06:36;100247.81;;;10.52;91.60
26531;BME280;14201;43.188;24.160;2024-02-28T10:09:01;100254.31;;;10.76;91.81
26531;BME280;14201;43.188;24.160;2024-02-28T10:11:27;100256.78;;;10.91;90.47
26531;BME280;14201;43.188;24.160;2024-02-28T10:13:54;100253.38;;;10.92;90.33
26531;BME280;14201;43.188;24.160;2024-02-28T10:16:20;100250.69;;;11.09;88.55
26531;BME280;14201;43.188;24.160;2024-02-28T10:18:46;100230.09;;;10.95;86.52
26531;BME280;14201;43.188;24.160;2024-02-28T10:21:12;100227.47;;;10.95;88.07
26531;BME280;14201;43.188;24.160;2024-02-28T10:23:41;100237.16;;;10.98;87.06
26531;BME280;14201;43.188;24.160;2024-02-28T10:26:10;100230.09;;;10.95;87.23
26531;BME280;14201;43.188;24.160;2024-02-28T10:28:37;100226.13;;;11.03;88.12
26531;BME280;14201;43.188;24.160;2024-02-28T10:31:04;100212.47;;;10.91;87.63
26531;BME280;14201;43.188;24.160;2024-02-28T10:33:30;100221.81;;;10.70;89.29
26531;BME280;14201;43.188;24.160;2024-02-28T10:35:59;100216.84;;;10.74;89.97
26531;BME280;14201;43.188;24.160;2024-02-28T10:38:26;100211.69;;;10.76;90.24
26531;BME280;14201;43.188;24.160;2024-02-28T10:40:53;100215.25;;;10.94;92.51
26531;BME280;14201;43.188;24.160;2024-02-28T10:43:19;100212.31;;;11.22;92.49
26531;BME280;14201;43.188;24.160;2024-02-28T10:45:45;100201.25;;;11.46;91.77
26531;BME280;14201;43.188;24.160;2024-02-28T10:48:14;100192.75;;;11.88;86.51
26531;BME280;14201;43.188;24.160;2024-02-28T10:50:40;100197.41;;;12.13;85.45
26531;BME280;14201;43.188;24.160;2024-02-28T10:53:14;100183.44;;;12.32;81.71
26531;BME280;14201;43.188;24.160;2024-02-28T10:55:42;100190.13;;;12.45;81.70
26531;BME280;14201;43.188;24.160;2024-02-28T10:58:11;100183.97;;;12.44;81.65
26531;BME280;14201;43.188;24.160;2024-02-28T11:00:42;100173.66;;;12.47;81.80
26531;BME280;14201;43.188;24.160;2024-02-28T11:03:11;100174.13;;;12.79;81.61
26531;BME280;14201;43.188;24.160;2024-02-28T11:05:38;100175.72;;;13.17;80.01
26531;BME280;14201;43.188;24.160;2024-02-28T11:08:05;100171.59;;;13.45;78.83
26531;BME280;14201;43.188;24.160;2024-02-28T11:10:31;100163.91;;;13.72;79.89
26531;BME280;14201;43.188;24.160;2024-02-28T11:12:58;100157.28;;;14.05;78.96
26531;BME280;14201;43.188;24.160;2024-02-28T11:15:24;100159.19;;;14.33;77.65
26531;BME280;14201;43.188;24.160;2024-02-28T11:17:54;100157.09;;;14.48;75.23
26531;BME280;14201;43.188;24.160;2024-02-28T11:20:20;100152.69;;;14.73;75.37
26531;BME280;14201;43.188;24.160;2024-02-28T11:22:48;100150.78;;;14.94;75.15
26531;BME280;14201;43.188;24.160;2024-02-28T11:25:13;100152.34;;;15.15;74.06
26531;BME280;14201;43.188;24.160;2024-02-28T11:27:49;100157.44;;;15.38;73.30
26531;BME280;14201;43.188;24.160;2024-02-28T11:30:15;100144.50;;;15.44;71.62
26531;BME280;14201;43.188;24.160;2024-02-28T11:32:41;100155.81;;;15.43;71.13
26531;BME280;14201;43.188;24.160;2024-02-28T11:35:07;100146.47;;;15.51;71.51
26531;BME280;14201;43.188;24.160;2024-02-28T11:37:33;100142.63;;;15.68;71.26
26531;BME280;14201;43.188;24.160;2024-02-28T11:39:59;100142.19;;;15.83;71.69
26531;BME280;14201;43.188;24.160;2024-02-28T11:42:25;100140.56;;;15.87;70.01
26531;BME280;14201;43.188;24.160;2024-02-28T11:44:55;100136.84;;;16.10;69.78
26531;BME280;14201;43.188;24.160;2024-02-28T11:47:25;100129.22;;;16.20;68.95
26531;BME280;14201;43.188;24.160;2024-02-28T11:49:51;100129.03;;;16.13;66.31
26531;BME280;14201;43.188;24.160;2024-02-28T11:52:17;100128.13;;;16.11;68.55
26531;BME280;14201;43.188;24.160;2024-02-28T11:54:42;100132.81;;;16.23;68.46
26531;BME280;14201;43.188;24.160;2024-02-28T11:57:10;100122.56;;;16.34;66.36
26531;BME280;14201;43.188;24.160;2024-02-28T11:59:39;100125.41;;;16.40;67.41
26531;BME280;14201;43.188;24.160;2024-02-28T12:02:12;100110.75;;;16.51;66.46
26531;BME280;14201;43.188;24.160;2024-02-28T12:04:42;100117.72;;;16.49;65.27
26531;BME280;14201;43.188;24.160;2024-02-28T12:07:08;100118.75;;;16.54;66.62
26531;BME280;14201;43.188;24.160;2024-02-28T12:09:34;100104.72;;;16.54;66.02
26531;BME280;14201;43.188;24.160;2024-02-28T12:12:02;100106.63;;;16.61;66.86
26531;BME280;14201;43.188;24.160;2024-02-28T12:14:32;100101.50;;;16.66;66.71
26531;BME280;14201;43.188;24.160;2024-02-28T12:16:58;100105.28;;;16.77;65.65
26531;BME280;14201;43.188;24.160;2024-02-28T12:19:24;100105.63;;;16.89;65.47
26531;BME280;14201;43.188;24.160;2024-02-28T12:21:50;100107.41;;;16.90;63.66
26531;BME280;14201;43.188;24.160;2024-02-28T12:24:15;100105.06;;;17.03;63.23
26531;BME280;14201;43.188;24.160;2024-02-28T12:26:41;100099.56;;;16.93;62.78
26531;BME280;14201;43.188;24.160;2024-02-28T12:29:07;100094.91;;;16.82;63.77
26531;BME280;14201;43.188;24.160;2024-02-28T12:31:35;100092.31;;;16.83;62.93
26531;BME280;14201;43.188;24.160;2024-02-28T12:34:02;100087.75;;;16.78;63.62
26531;BME280;14201;43.188;24.160;2024-02-28T12:36:29;100087.47;;;16.67;63.38
26531;BME280;14201;43.188;24.160;2024-02-28T12:38:56;100081.16;;;16.59;63.97